sensor_id;sensor_type;location;lat;lon;timestamp;pressure;altitude;pressure_sealevel;temperature;humidity
70011;BME280;59543;37.950;-122.338;2023-04-28T00:02:11;100982.63;;;23.81;41.05
70011;BME280;59543;37.950;-122.338;2023-04-28T00:04:38;100979.13;;;23.74;40.35
70011;BME280;59543;37.950;-122.338;2023-04-28T00:07:04;100981.31;;;23.65;40.34
70011;BME280;59543;37.950;-122.338;2023-04-28T00:09:30;100982.28;;;23.34;40.41
70011;BME280;59543;37.950;-122.338;2023-04-28T00:11:56;100976.13;;;23.39;40.97
70011;BME280;59543;37.950;-122.338;2023-04-28T00:14:23;100980.94;;;23.00;41.05
70011;BME280;59543;37.950;-122.338;2023-04-28T00:16:49;100977.56;;;23.23;41.85
70011;BME280;59543;37.950;-122.338;2023-04-28T00:19:15;100982.72;;;22.88;42.83
70011;BME280;59543;37.950;-122.338;2023-04-28T00:21:41;100974.91;;;22.66;42.58
70011;BME280;59543;37.950;-122.338;2023-04-28T00:24:08;100968.53;;;22.41;44.44
70011;BME280;59543;37.950;-122.338;2023-04-28T00:26:34;100966.19;;;22.44;43.92
70011;BME280;59543;37.950;-122.338;2023-04-28T00:29:00;100966.47;;;22.36;44.27
70011;BME280;59543;37.950;-122.338;2023-04-28T00:31:26;100968.56;;;22.02;43.61
70011;BME280;59543;37.950;-122.338;2023-04-28T00:33:53;100968.56;;;22.02;43.84
70011;BME280;59543;37.950;-122.338;2023-04-28T00:36:19;100965.94;;;21.76;45.27
70011;BME280;59543;37.950;-122.338;2023-04-28T00:38:45;100962.50;;;21.87;46.03
70011;BME280;59543;37.950;-122.338;2023-04-28T00:41:11;100971.16;;;21.84;46.28
70011;BME280;59543;37.950;-122.338;2023-04-28T00:43:47;100971.56;;;21.87;46.83
70011;BME280;59543;37.950;-122.338;2023-04-28T00:46:33;100980.53;;;21.56;47.08
70011;BME280;59543;37.950;-122.338;2023-04-28T00:49:00;100970.22;;;21.58;47.22
70011;BME280;59543;37.950;-122.338;2023-04-28T00:51:26;100974.25;;;21.49;47.34
70011;BME280;59543;37.950;-122.338;2023-04-28T00:53:54;100975.53;;;21.20;47.54
70011;BME280;59543;37.950;-122.338;2023-04-28T00:56:21;100975.34;;;21.08;48.30
70011;BME280;59543;37.950;-122.338;2023-04-28T00:58:47;100977.25;;;21.01;48.90
70011;BME280;59543;37.950;-122.338;2023-04-28T01:01:14;100976.22;;;20.89;48.80
70011;BME280;59543;37.950;-122.338;2023-04-28T01:03:40;100983.78;;;20.53;50.08
70011;BME280;59543;37.950;-122.338;2023-04-28T01:06:07;100977.47;;;20.53;49.28
70011;BME280;59543;37.950;-122.338;2023-04-28T01:08:35;100980.63;;;20.63;49.40
70011;BME280;59543;37.950;-122.338;2023-04-28T01:11:02;100980.53;;;20.23;49.85
70011;BME280;59543;37.950;-122.338;2023-04-28T01:13:30;100976.50;;;20.06;50.79
70011;BME280;59543;37.950;-122.338;2023-04-28T01:15:56;100974.97;;;19.83;51.10
70011;BME280;59543;37.950;-122.338;2023-04-28T01:18:23;100965.69;;;19.71;51.57
70011;BME280;59543;37.950;-122.338;2023-04-28T01:20:50;100965.53;;;19.45;52.46
70011;BME280;59543;37.950;-122.338;2023-04-28T01:23:17;100965.09;;;19.41;53.32
70011;BME280;59543;37.950;-122.338;2023-04-28T01:25:43;100979.72;;;19.33;53.19
70011;BME280;59543;37.950;-122.338;2023-04-28T01:28:10;100973.22;;;19.00;54.96
70011;BME280;59543;37.950;-122.338;2023-04-28T01:30:36;100971.44;;;18.85;55.16
70011;BME280;59543;37.950;-122.338;2023-04-28T01:33:03;100972.03;;;18.81;55.14
70011;BME280;59543;37.950;-122.338;2023-04-28T01:35:29;100971.97;;;18.74;56.03
70011;BME280;59543;37.950;-122.338;2023-04-28T01:37:56;100977.28;;;18.61;57.32
70011;BME280;59543;37.950;-122.338;2023-04-28T01:40:22;100977.28;;;18.39;58.23
70011;BME280;59543;37.950;-122.338;2023-04-28T01:42:49;100978.13;;;18.40;57.72
70011;BME280;59543;37.950;-122.338;2023-04-28T01:45:15;100980.63;;;18.20;58.16
70011;BME280;59543;37.950;-122.338;2023-04-28T01:47:42;100989.78;;;18.12;59.35
70011;BME280;59543;37.950;-122.338;2023-04-28T01:50:08;100986.34;;;18.25;58.66
70011;BME280;59543;37.950;-122.338;2023-04-28T01:52:35;100990.31;;;17.86;59.65
70011;BME280;59543;37.950;-122.338;2023-04-28T01:55:01;100983.97;;;17.79;60.42
70011;BME280;59543;37.950;-122.338;2023-04-28T01:57:28;100986.59;;;17.43;61.74
70011;BME280;59543;37.950;-122.338;2023-04-28T01:59:54;100983.88;;;17.28;62.46
70011;BME280;59543;37.950;-122.338;2023-04-28T02:02:20;100992.88;;;17.43;62.20
70011;BME280;59543;37.950;-122.338;2023-04-28T02:04:47;100983.28;;;17.18;63.06
70011;BME280;59543;37.950;-122.338;2023-04-28T02:07:13;100985.41;;;16.92;64.15
70011;BME280;59543;37.950;-122.338;2023-04-28T02:09:39;100990.59;;;17.02;63.89
70011;BME280;59543;37.950;-122.338;2023-04-28T02:12:05;100984.94;;;16.66;65.01
70011;BME280;59543;37.950;-122.338;2023-04-28T02:14:32;100987.25;;;16.77;64.51
70011;BME280;59543;37.950;-122.338;2023-04-28T02:16:59;100989.75;;;16.64;64.87
70011;BME280;59543;37.950;-122.338;2023-04-28T02:19:27;100991.78;;;16.62;65.21
70011;BME280;59543;37.950;-122.338;2023-04-28T02:21:53;100992.44;;;16.18;67.09
70011;BME280;59543;37.950;-122.338;2023-04-28T02:24:20;100993.81;;;16.14;67.18
70011;BME280;59543;37.950;-122.338;2023-04-28T02:26:46;101010.06;;;15.91;68.96
70011;BME280;59543;37.950;-122.338;2023-04-28T02:29:12;101008.13;;;15.76;69.26
70011;BME280;59543;37.950;-122.338;2023-04-28T02:31:38;100997.50;;;15.50;70.38
70011;BME280;59543;37.950;-122.338;2023-04-28T02:34:04;101001.72;;;15.53;70.56
70011;BME280;59543;37.950;-122.338;2023-04-28T02:36:31;101009.97;;;15.04;72.15
70011;BME280;59543;37.950;-122.338;2023-04-28T02:38:58;101021.19;;;14.84;73.32
70011;BME280;59543;37.950;-122.338;2023-04-28T02:41:24;101019.47;;;14.92;73.11
70011;BME280;59543;37.950;-122.338;2023-04-28T02:43:51;101016.78;;;14.75;74.49
70011;BME280;59543;37.950;-122.338;2023-04-28T02:46:17;101019.50;;;14.83;74.57
70011;BME280;59543;37.950;-122.338;2023-04-28T02:48:43;101018.75;;;14.49;75.72
70011;BME280;59543;37.950;-122.338;2023-04-28T02:51:09;101023.16;;;14.41;76.31
70011;BME280;59543;37.950;-122.338;2023-04-28T02:53:36;101021.06;;;14.11;77.84
70011;BME280;59543;37.950;-122.338;2023-04-28T02:56:03;101026.44;;;13.94;78.78
70011;BME280;59543;37.950;-122.338;2023-04-28T02:58:29;101034.88;;;13.91;79.41
70011;BME280;59543;37.950;-122.338;2023-04-28T03:00:55;101030.81;;;13.95;79.02
70011;BME280;59543;37.950;-122.338;2023-04-28T03:03:21;101034.03;;;13.57;81.41
70011;BME280;59543;37.950;-122.338;2023-04-28T03:05:48;101040.50;;;13.64;81.16
70011;BME280;59543;37.950;-122.338;2023-04-28T03:08:14;101032.59;;;13.36;81.93
70011;BME280;59543;37.950;-122.338;2023-04-28T03:10:40;101038.66;;;13.30;82.98
70011;BME280;59543;37.950;-122.338;2023-04-28T03:13:06;101047.28;;;13.34;82.81
70011;BME280;59543;37.950;-122.338;2023-04-28T03:15:33;101043.03;;;13.13;83.38
70011;BME280;59543;37.950;-122.338;2023-04-28T03:18:00;101039.38;;;12.96;84.88
70011;BME280;59543;37.950;-122.338;2023-04-28T03:20:26;101054.72;;;12.96;84.96
70011;BME280;59543;37.950;-122.338;2023-04-28T03:22:52;101046.53;;;13.05;84.63
70011;BME280;59543;37.950;-122.338;2023-04-28T03:25:18;101041.09;;;12.97;84.61
70011;BME280;59543;37.950;-122.338;2023-04-28T03:27:45;101057.63;;;13.02;84.33
70011;BME280;59543;37.950;-122.338;2023-04-28T03:30:11;101052.50;;;12.91;85.58
70011;BME280;59543;37.950;-122.338;2023-04-28T03:32:38;101052.16;;;13.12;84.77
70011;BME280;59543;37.950;-122.338;2023-04-28T03:35:05;101052.47;;;13.09;85.21
70011;BME280;59543;37.950;-122.338;2023-04-28T03:37:32;101057.19;;;13.25;84.42
70011;BME280;59543;37.950;-122.338;2023-04-28T03:39:58;101055.06;;;13.19;84.88
70011;BME280;59543;37.950;-122.338;2023-04-28T03:42:24;101059.56;;;13.10;85.67
70011;BME280;59543;37.950;-122.338;2023-04-28T03:44:50;101058.41;;;13.13;85.32
70011;BME280;59543;37.950;-122.338;2023-04-28T03:47:17;101064.34;;;13.16;84.66
70011;BME280;59543;37.950;-122.338;2023-04-28T03:49:43;101071.66;;;13.24;83.89
70011;BME280;59543;37.950;-122.338;2023-04-28T03:52:09;101069.66;;;13.26;83.88
70011;BME280;59543;37.950;-122.338;2023-04-28T03:54:36;101076.38;;;13.22;83.66
70011;BME280;59543;37.950;-122.338;2023-04-28T03:57:02;101066.41;;;13.22;83.60
70011;BME280;59543;37.950;-122.338;2023-04-28T03:59:29;101075.59;;;13.30;82.88
70011;BME280;59543;37.950;-122.338;2023-04-28T04:01:55;101081.59;;;13.41;82.72
70011;BME280;59543;37.950;-122.338;2023-04-28T04:04:21;101079.59;;;13.43;82.32
70011;BME280;59543;37.950;-122.338;2023-04-28T04:06:47;101076.69;;;13.19;83.36
70011;BME280;59543;37.950;-122.338;2023-04-28T04:09:14;101080.41;;;13.18;83.61
70011;BME280;59543;37.950;-122.338;2023-04-28T04:11:40;101087.94;;;13.32;82.84
70011;BME280;59543;37.950;-122.338;2023-04-28T04:14:06;101085.41;;;13.31;82.94
70011;BME280;59543;37.950;-122.338;2023-04-28T04:16:33;101089.59;;;13.25;82.89
70011;BME280;59543;37.950;-122.338;2023-04-28T04:19:00;101091.34;;;13.34;83.17
70011;BME280;59543;37.950;-122.338;2023-04-28T04:21:26;101098.66;;;13.42;82.31
70011;BME280;59543;37.950;-122.338;2023-04-28T04:23:53;101102.75;;;13.46;81.97
70011;BME280;59543;37.950;-122.338;2023-04-28T04:26:19;101101.19;;;13.43;82.53
70011;BME280;59543;37.950;-122.338;2023-04-28T04:28:46;101107.75;;;13.41;82.84
70011;BME280;59543;37.950;-122.338;2023-04-28T04:31:12;101112.84;;;13.44;83.03
70011;BME280;59543;37.950;-122.338;2023-04-28T04:33:38;101105.00;;;13.33;84.07
70011;BME280;59543;37.950;-122.338;2023-04-28T04:36:05;101105.75;;;13.43;83.73
70011;BME280;59543;37.950;-122.338;2023-04-28T04:38:31;101113.91;;;13.25;84.68
70011;BME280;59543;37.950;-122.338;2023-04-28T04:40:57;101110.78;;;13.38;84.45
70011;BME280;59543;37.950;-122.338;2023-04-28T04:43:23;101109.72;;;13.31;85.09
70011;BME280;59543;37.950;-122.338;2023-04-28T04:45:50;101118.38;;;13.34;84.63
70011;BME280;59543;37.950;-122.338;2023-04-28T04:48:16;101108.19;;;13.28;85.72
70011;BME280;59543;37.950;-122.338;2023-04-28T04:50:42;101121.53;;;13.30;86.24
70011;BME280;59543;37.950;-122.338;2023-04-28T04:53:09;101121.84;;;13.26;86.61
70011;BME280;59543;37.950;-122.338;2023-04-28T04:55:35;101119.06;;;13.18;87.38
70011;BME280;59543;37.950;-122.338;2023-04-28T04:58:01;101121.44;;;13.21;86.81
70011;BME280;59543;37.950;-122.338;2023-04-28T05:00:28;101118.22;;;13.18;87.19
70011;BME280;59543;37.950;-122.338;2023-04-28T05:02:54;101108.09;;;13.20;86.96
70011;BME280;59543;37.950;-122.338;2023-04-28T05:05:20;101110.78;;;13.20;87.24
70011;BME280;59543;37.950;-122.338;2023-04-28T05:07:46;101110.56;;;13.13;87.39
70011;BME280;59543;37.950;-122.338;2023-04-28T05:10:13;101105.94;;;13.05;88.40
70011;BME280;59543;37.950;-122.338;2023-04-28T05:12:39;101105.78;;;13.07;87.84
70011;BME280;59543;37.950;-122.338;2023-04-28T05:15:06;101102.19;;;12.98;88.06
70011;BME280;59543;37.950;-122.338;2023-04-28T05:17:33;101104.66;;;12.92;88.43
70011;BME280;59543;37.950;-122.338;2023-04-28T05:19:59;101108.91;;;12.94;89.00
70011;BME280;59543;37.950;-122.338;2023-04-28T05:22:25;101115.75;;;13.07;88.97
70011;BME280;59543;37.950;-122.338;2023-04-28T05:24:51;101108.28;;;13.00;89.18
70011;BME280;59543;37.950;-122.338;2023-04-28T05:27:18;101108.09;;;13.02;89.06
70011;BME280;59543;37.950;-122.338;2023-04-28T05:29:44;101109.75;;;12.95;89.47
70011;BME280;59543;37.950;-122.338;2023-04-28T05:32:10;101111.91;;;12.91;89.88
70011;BME280;59543;37.950;-122.338;2023-04-28T05:34:37;101110.91;;;12.92;89.75
70011;BME280;59543;37.950;-122.338;2023-04-28T05:37:03;101112.59;;;12.93;90.07
70011;BME280;59543;37.950;-122.338;2023-04-28T05:39:29;101107.88;;;12.95;90.35
70011;BME280;59543;37.950;-122.338;2023-04-28T05:41:55;101106.00;;;12.88;90.29
70011;BME280;59543;37.950;-122.338;2023-04-28T05:44:23;101108.94;;;13.02;89.93
70011;BME280;59543;37.950;-122.338;2023-04-28T05:46:49;101116.53;;;12.81;90.14
70011;BME280;59543;37.950;-122.338;2023-04-28T05:49:16;101108.81;;;12.86;90.46
70011;BME280;59543;37.950;-122.338;2023-04-28T05:51:42;101109.34;;;12.90;90.43
70011;BME280;59543;37.950;-122.338;2023-04-28T05:54:09;101116.47;;;12.91;90.31
70011;BME280;59543;37.950;-122.338;2023-04-28T05:56:35;101111.91;;;12.91;91.38
70011;BME280;59543;37.950;-122.338;2023-04-28T05:59:01;101107.13;;;12.85;92.09
70011;BME280;59543;37.950;-122.338;2023-04-28T06:01:32;101109.53;;;12.88;92.50
70011;BME280;59543;37.950;-122.338;2023-04-28T06:03:58;101110.81;;;12.84;93.04
70011;BME280;59543;37.950;-122.338;2023-04-28T06:06:25;101108.75;;;12.78;93.52
70011;BME280;59543;37.950;-122.338;2023-04-28T06:08:52;101108.81;;;12.68;94.14
70011;BME280;59543;37.950;-122.338;2023-04-28T06:11:18;101100.28;;;12.73;94.31
70011;BME280;59543;37.950;-122.338;2023-04-28T06:13:48;101100.59;;;12.70;94.44
70011;BME280;59543;37.950;-122.338;2023-04-28T06:16:15;101101.88;;;12.66;94.16
70011;BME280;59543;37.950;-122.338;2023-04-28T06:18:42;101101.75;;;12.67;94.84
70011;BME280;59543;37.950;-122.338;2023-04-28T06:21:09;101106.44;;;12.65;95.23
70011;BME280;59543;37.950;-122.338;2023-04-28T06:23:35;101106.66;;;12.72;95.28
70011;BME280;59543;37.950;-122.338;2023-04-28T06:26:03;101109.75;;;12.59;95.93
70011;BME280;59543;37.950;-122.338;2023-04-28T06:28:29;101104.66;;;12.56;95.64
70011;BME280;59543;37.950;-122.338;2023-04-28T06:30:55;101107.28;;;12.66;95.27
70011;BME280;59543;37.950;-122.338;2023-04-28T06:33:22;101108.97;;;12.49;95.81
70011;BME280;59543;37.950;-122.338;2023-04-28T06:35:48;101111.72;;;12.39;96.43
70011;BME280;59543;37.950;-122.338;2023-04-28T06:38:14;101108.56;;;12.44;96.50
70011;BME280;59543;37.950;-122.338;2023-04-28T06:40:40;101112.72;;;12.38;97.01
70011;BME280;59543;37.950;-122.338;2023-04-28T06:43:07;101115.88;;;12.51;96.49
70011;BME280;59543;37.950;-122.338;2023-04-28T06:45:33;101108.78;;;12.32;96.89
70011;BME280;59543;37.950;-122.338;2023-04-28T06:47:59;101117.06;;;12.21;98.16
70011;BME280;59543;37.950;-122.338;2023-04-28T06:50:26;101121.50;;;12.22;97.63
70011;BME280;59543;37.950;-122.338;2023-04-28T06:52:52;101113.00;;;12.17;98.12
70011;BME280;59543;37.950;-122.338;2023-04-28T06:55:18;101117.00;;;12.13;98.20
70011;BME280;59543;37.950;-122.338;2023-04-28T06:57:45;101123.59;;;12.01;98.03
70011;BME280;59543;37.950;-122.338;2023-04-28T07:00:12;101117.91;;;12.04;98.66
70011;BME280;59543;37.950;-122.338;2023-04-28T07:02:38;101113.66;;;12.01;99.51
70011;BME280;59543;37.950;-122.338;2023-04-28T07:05:05;101119.44;;;12.06;99.50
70011;BME280;59543;37.950;-122.338;2023-04-28T07:07:31;101119.19;;;12.00;99.91
70011;BME280;59543;37.950;-122.338;2023-04-28T07:09:57;101127.13;;;12.01;99.76
70011;BME280;59543;37.950;-122.338;2023-04-28T07:12:25;101125.41;;;12.00;99.59
70011;BME280;59543;37.950;-122.338;2023-04-28T07:14:52;101119.44;;;12.06;99.43
70011;BME280;59543;37.950;-122.338;2023-04-28T07:17:18;101116.16;;;12.12;99.29
70011;BME280;59543;37.950;-122.338;2023-04-28T07:19:44;101123.66;;;12.19;99.26
70011;BME280;59543;37.950;-122.338;2023-04-28T07:22:11;101126.78;;;12.14;99.11
70011;BME280;59543;37.950;-122.338;2023-04-28T07:24:37;101122.41;;;12.13;98.94
70011;BME280;59543;37.950;-122.338;2023-04-28T07:27:04;101129.41;;;12.24;98.20
70011;BME280;59543;37.950;-122.338;2023-04-28T07:29:30;101120.94;;;12.19;98.11
70011;BME280;59543;37.950;-122.338;2023-04-28T07:31:59;101121.78;;;12.19;97.58
70011;BME280;59543;37.950;-122.338;2023-04-28T07:34:26;101127.88;;;12.21;97.16
70011;BME280;59543;37.950;-122.338;2023-04-28T07:36:53;101127.78;;;12.13;96.79
70011;BME280;59543;37.950;-122.338;2023-04-28T07:39:20;101124.13;;;12.04;97.64
70011;BME280;59543;37.950;-122.338;2023-04-28T07:41:46;101128.81;;;12.02;97.56
70011;BME280;59543;37.950;-122.338;2023-04-28T07:44:12;101123.72;;;11.99;96.79
70011;BME280;59543;37.950;-122.338;2023-04-28T07:46:38;101131.94;;;12.07;96.30
70011;BME280;59543;37.950;-122.338;2023-04-28T07:49:05;101135.50;;;11.98;96.87
70011;BME280;59543;37.950;-122.338;2023-04-28T07:51:33;101132.41;;;11.93;97.50
70011;BME280;59543;37.950;-122.338;2023-04-28T07:53:59;101136.97;;;11.83;98.40
70011;BME280;59543;37.950;-122.338;2023-04-28T07:56:25;101128.31;;;11.89;98.39
70011;BME280;59543;37.950;-122.338;2023-04-28T07:58:52;101124.47;;;11.92;97.35
70011;BME280;59543;37.950;-122.338;2023-04-28T08:01:18;101128.09;;;12.00;97.25
70011;BME280;59543;37.950;-122.338;2023-04-28T08:03:44;101127.47;;;11.88;97.92
70011;BME280;59543;37.950;-122.338;2023-04-28T08:06:12;101135.25;;;11.82;98.41
70011;BME280;59543;37.950;-122.338;2023-04-28T08:08:38;101137.25;;;11.80;98.77
70011;BME280;59543;37.950;-122.338;2023-04-28T08:11:05;101131.03;;;11.70;99.47
70011;BME280;59543;37.950;-122.338;2023-04-28T08:13:32;101126.91;;;11.75;99.77
70011;BME280;59543;37.950;-122.338;2023-04-28T08:15:59;101126.31;;;11.81;99.39
70011;BME280;59543;37.950;-122.338;2023-04-28T08:18:26;101120.09;;;11.81;99.69
70011;BME280;59543;37.950;-122.338;2023-04-28T08:20:53;101120.38;;;11.78;100.00
70011;BME280;59543;37.950;-122.338;2023-04-28T08:23:19;101121.78;;;11.82;99.86
70011;BME280;59543;37.950;-122.338;2023-04-28T08:25:46;101121.09;;;11.80;100.00
70011;BME280;59543;37.950;-122.338;2023-04-28T08:28:12;101114.03;;;11.69;100.00
70011;BME280;59543;37.950;-122.338;2023-04-28T08:30:39;101103.06;;;11.80;100.00
70011;BME280;59543;37.950;-122.338;2023-04-28T08:33:05;101105.66;;;11.72;100.00
70011;BME280;59543;37.950;-122.338;2023-04-28T08:35:31;101116.38;;;11.82;100.00
70011;BME280;59543;37.950;-122.338;2023-04-28T08:37:57;101121.69;;;11.74;99.44
70011;BME280;59543;37.950;-122.338;2023-04-28T08:40:24;101119.00;;;11.74;99.24
70011;BME280;59543;37.950;-122.338;2023-04-28T08:42:51;101122.38;;;11.76;98.41
70011;BME280;59543;37.950;-122.338;2023-04-28T08:45:21;101116.72;;;11.69;99.48
70011;BME280;59543;37.950;-122.338;2023-04-28T08:47:50;101114.72;;;11.71;99.38
70011;BME280;59543;37.950;-122.338;2023-04-28T08:50:20;101115.16;;;11.66;98.93
70011;BME280;59543;37.950;-122.338;2023-04-28T08:52:47;101115.47;;;11.63;99.49
70011;BME280;59543;37.950;-122.338;2023-04-28T08:55:17;101111.78;;;11.55;100.00
70011;BME280;59543;37.950;-122.338;2023-04-28T08:57:45;101108.00;;;11.48;100.00
70011;BME280;59543;37.950;-122.338;2023-04-28T09:00:14;101105.00;;;11.51;100.00
70011;BME280;59543;37.950;-122.338;2023-04-28T09:02:40;101104.50;;;11.37;100.00
70011;BME280;59543;37.950;-122.338;2023-04-28T09:05:08;101103.88;;;11.53;100.00
70011;BME280;59543;37.950;-122.338;2023-04-28T09:07:34;101099.06;;;11.47;100.00
70011;BME280;59543;37.950;-122.338;2023-04-28T09:10:23;101106.16;;;11.48;100.00
70011;BME280;59543;37.950;-122.338;2023-04-28T09:12:54;101103.31;;;11.40;100.00
70011;BME280;59543;37.950;-122.338;2023-04-28T09:15:34;101108.88;;;11.38;100.00
70011;BME280;59543;37.950;-122.338;2023-04-28T09:18:02;101105.03;;;11.41;100.00
70011;BME280;59543;37.950;-122.338;2023-04-28T09:20:30;101103.91;;;11.43;100.00
70011;BME280;59543;37.950;-122.338;2023-04-28T09:25:38;101109.16;;;11.35;100.00
70011;BME280;59543;37.950;-122.338;2023-04-28T09:28:20;101102.22;;;11.33;100.00
70011;BME280;59543;37.950;-122.338;2023-04-28T09:30:47;101103.66;;;11.27;100.00
70011;BME280;59543;37.950;-122.338;2023-04-28T09:33:13;101102.34;;;11.41;100.00
70011;BME280;59543;37.950;-122.338;2023-04-28T09:35:44;101097.81;;;11.41;100.00
70011;BME280;59543;37.950;-122.338;2023-04-28T09:38:11;101102.78;;;11.36;100.00
70011;BME280;59543;37.950;-122.338;2023-04-28T09:40:55;101105.88;;;11.41;100.00
70011;BME280;59543;37.950;-122.338;2023-04-28T09:43:29;101107.03;;;11.39;100.00
70011;BME280;59543;37.950;-122.338;2023-04-28T09:45:57;101103.94;;;11.14;100.00
70011;BME280;59543;37.950;-122.338;2023-04-28T09:48:29;101111.59;;;11.19;100.00
70011;BME280;59543;37.950;-122.338;2023-04-28T09:50:56;101103.81;;;11.26;100.00
70011;BME280;59543;37.950;-122.338;2023-04-28T09:53:25;101111.00;;;11.25;100.00
70011;BME280;59543;37.950;-122.338;2023-04-28T09:55:52;101113.00;;;11.23;100.00
70011;BME280;59543;37.950;-122.338;2023-04-28T09:58:23;101109.47;;;11.13;100.00
70011;BME280;59543;37.950;-122.338;2023-04-28T10:03:22;101113.56;;;11.27;100.00
70011;BME280;59543;37.950;-122.338;2023-04-28T10:05:49;101114.00;;;11.22;100.00
70011;BME280;59543;37.950;-122.338;2023-04-28T10:08:19;101118.41;;;11.23;100.00
70011;BME280;59543;37.950;-122.338;2023-04-28T10:10:50;101122.66;;;11.26;100.00
70011;BME280;59543;37.950;-122.338;2023-04-28T10:13:23;101116.84;;;11.20;100.00
70011;BME280;59543;37.950;-122.338;2023-04-28T10:15:50;101102.53;;;11.20;100.00
70011;BME280;59543;37.950;-122.338;2023-04-28T10:18:21;101110.44;;;11.21;100.00
70011;BME280;59543;37.950;-122.338;2023-04-28T10:20:52;101112.31;;;11.21;100.00
70011;BME280;59543;37.950;-122.338;2023-04-28T10:23:59;101107.19;;;11.18;100.00
70011;BME280;59543;37.950;-122.338;2023-04-28T10:27:13;101101.69;;;11.10;100.00
70011;BME280;59543;37.950;-122.338;2023-04-28T10:29:14;101109.34;;;11.14;100.00
70011;BME280;59543;37.950;-122.338;2023-04-28T10:32:19;101109.47;;;11.23;100.00
70011;BME280;59543;37.950;-122.338;2023-04-28T10:34:46;101116.97;;;11.19;100.00
70011;BME280;59543;37.950;-122.338;2023-04-28T10:37:14;101112.31;;;11.11;100.00
70011;BME280;59543;37.950;-122.338;2023-04-28T10:40:29;101118.56;;;11.02;100.00
70011;BME280;59543;37.950;-122.338;2023-04-28T10:42:54;101110.63;;;11.01;100.00
70011;BME280;59543;37.950;-122.338;2023-04-28T10:48:05;101111.59;;;11.09;100.00
70011;BME280;59543;37.950;-122.338;2023-04-28T10:50:31;101111.88;;;11.06;100.00
70011;BME280;59543;37.950;-122.338;2023-04-28T10:52:58;101115.03;;;11.02;100.00
70011;BME280;59543;37.950;-122.338;2023-04-28T10:55:32;101112.34;;;11.02;100.00
70011;BME280;59543;37.950;-122.338;2023-04-28T11:00:46;101106.22;;;11.09;100.00
70011;BME280;59543;37.950;-122.338;2023-04-28T11:03:39;101107.34;;;11.07;100.00
70011;BME280;59543;37.950;-122.338;2023-04-28T11:06:34;101116.72;;;11.03;100.00
70011;BME280;59543;37.950;-122.338;2023-04-28T11:09:01;101121.25;;;11.02;100.00
70011;BME280;59543;37.950;-122.338;2023-04-28T11:16:56;101122.94;;;11.13;100.00
70011;BME280;59543;37.950;-122.338;2023-04-28T11:19:31;101129.47;;;11.10;100.00
70011;BME280;59543;37.950;-122.338;2023-04-28T11:21:59;101121.78;;;11.15;100.00
70011;BME280;59543;37.950;-122.338;2023-04-28T11:24:27;101115.84;;;11.12;100.00
70011;BME280;59543;37.950;-122.338;2023-04-28T11:26:54;101123.06;;;11.21;100.00
70011;BME280;59543;37.950;-122.338;2023-04-28T11:29:34;101121.38;;;11.20;100.00
70011;BME280;59543;37.950;-122.338;2023-04-28T11:32:02;101122.50;;;11.27;100.00
70011;BME280;59543;37.950;-122.338;2023-04-28T11:34:28;101119.97;;;11.26;100.00
70011;BME280;59543;37.950;-122.338;2023-04-28T11:36:55;101119.66;;;11.29;100.00
70011;BME280;59543;37.950;-122.338;2023-04-28T11:39:26;101120.06;;;11.34;100.00
70011;BME280;59543;37.950;-122.338;2023-04-28T11:41:54;101124.06;;;11.20;100.00
70011;BME280;59543;37.950;-122.338;2023-04-28T11:44:22;101130.16;;;11.12;100.00
70011;BME280;59543;37.950;-122.338;2023-04-28T11:47:02;101124.09;;;11.10;100.00
70011;BME280;59543;37.950;-122.338;2023-04-28T11:52:05;101124.91;;;11.20;100.00
70011;BME280;59543;37.950;-122.338;2023-04-28T11:54:32;101133.56;;;11.14;100.00
70011;BME280;59543;37.950;-122.338;2023-04-28T11:56:59;101138.53;;;11.09;100.00
70011;BME280;59543;37.950;-122.338;2023-04-28T11:59:33;101135.41;;;11.24;100.00
70011;BME280;59543;37.950;-122.338;2023-04-28T12:02:05;101133.56;;;11.14;100.00
70011;BME280;59543;37.950;-122.338;2023-04-28T12:04:40;101135.81;;;11.19;100.00
70011;BME280;59543;37.950;-122.338;2023-04-28T12:07:13;101135.69;;;11.20;100.00
70011;BME280;59543;37.950;-122.338;2023-04-28T12:09:41;101137.38;;;11.21;100.00
70011;BME280;59543;37.950;-122.338;2023-04-28T12:12:12;101142.19;;;11.28;100.00
70011;BME280;59543;37.950;-122.338;2023-04-28T12:17:29;101135.13;;;11.27;100.00
70011;BME280;59543;37.950;-122.338;2023-04-28T12:19:57;101148.72;;;11.15;100.00
70011;BME280;59543;37.950;-122.338;2023-04-28T12:22:24;101140.66;;;11.15;100.00
70011;BME280;59543;37.950;-122.338;2023-04-28T12:25:07;101148.44;;;11.18;100.00
70011;BME280;59543;37.950;-122.338;2023-04-28T12:27:35;101145.47;;;11.21;100.00
70011;BME280;59543;37.950;-122.338;2023-04-28T12:30:23;101148.56;;;11.27;100.00
70011;BME280;59543;37.950;-122.338;2023-04-28T12:32:50;101151.84;;;11.20;100.00
70011;BME280;59543;37.950;-122.338;2023-04-28T12:35:19;101152.41;;;11.14;100.00
70011;BME280;59543;37.950;-122.338;2023-04-28T12:37:46;101162.16;;;11.25;100.00
70011;BME280;59543;37.950;-122.338;2023-04-28T12:40:12;101159.91;;;11.30;99.94
70011;BME280;59543;37.950;-122.338;2023-04-28T12:42:39;101155.09;;;11.24;99.48
70011;BME280;59543;37.950;-122.338;2023-04-28T12:45:06;101159.06;;;11.30;99.20